createdAt,value
2022-08-18T00:00:46.388Z,22.00
2022-08-18T00:02:06.920Z,22.15
2022-08-18T00:03:27.435Z,22.03
2022-08-18T00:04:48.830Z,22.02
2022-08-18T00:05:52.031Z,21.84
2022-08-18T00:06:54.206Z,21.95
2022-08-18T00:07:56.340Z,21.90
2022-08-18T00:09:01.334Z,21.90
2022-08-18T00:10:05.468Z,21.99
2022-08-18T00:11:08.403Z,21.91
2022-08-18T00:12:21.291Z,21.81
2022-08-18T00:13:23.884Z,21.82
2022-08-18T00:14:26.285Z,21.81
2022-08-18T00:15:28.647Z,21.86
2022-08-18T00:16:30.693Z,21.76
2022-08-18T00:17:34.594Z,21.69
2022-08-18T00:18:36.700Z,21.77
2022-08-18T00:19:46.377Z,21.76
2022-08-18T00:20:50.219Z,21.85
2022-08-18T00:21:52.848Z,21.91
2022-08-18T00:22:56.783Z,21.95
2022-08-18T00:23:59.116Z,21.95
2022-08-18T00:25:01.367Z,22.11
2022-08-18T00:26:05.762Z,22.06
2022-08-18T00:27:10.730Z,22.04
2022-08-18T00:28:14.241Z,21.96
2022-08-18T00:29:16.316Z,21.89
2022-08-18T00:30:21.363Z,21.93
2022-08-18T00:31:23.607Z,22.02
2022-08-18T00:32:34.298Z,21.91
2022-08-18T00:33:36.377Z,21.88
2022-08-18T00:34:38.533Z,21.83
2022-08-18T00:35:41.033Z,21.82
2022-08-18T00:36:43.562Z,21.81
2022-08-18T00:37:45.991Z,21.78
2022-08-18T00:38:48.206Z,21.76
2022-08-18T00:39:52.989Z,21.71
2022-08-18T00:40:56.427Z,21.71
2022-08-18T00:41:58.449Z,21.75
2022-08-18T00:43:03.203Z,21.73
2022-08-18T00:44:05.382Z,21.70
2022-08-18T00:45:08.312Z,21.75
2022-08-18T00:46:15.753Z,21.78
2022-08-18T00:47:37.086Z,21.75
2022-08-18T00:48:40.173Z,21.82
2022-08-18T00:49:53.524Z,21.68
2022-08-18T00:51:02.845Z,21.62
2022-08-18T00:52:05.926Z,21.64
2022-08-18T00:53:17.764Z,21.65
2022-08-18T00:54:25.101Z,21.78
2022-08-18T00:55:31.557Z,21.65
2022-08-18T00:56:48.512Z,21.66
2022-08-18T00:57:55.377Z,21.57
2022-08-18T00:59:45.089Z,21.52
2022-08-18T01:00:51.413Z,21.55
2022-08-18T01:01:56.579Z,21.45
2022-08-18T01:03:09.479Z,21.44
2022-08-18T01:04:27.279Z,21.48
2022-08-18T01:05:46.299Z,21.37
2022-08-18T01:06:54.184Z,21.37
2022-08-18T01:07:57.012Z,21.48
2022-08-18T01:08:59.701Z,21.46
2022-08-18T01:10:04.974Z,21.46
2022-08-18T01:11:07.110Z,21.37
2022-08-18T01:12:45.592Z,21.41
2022-08-18T01:13:39.144Z,21.35
2022-08-18T01:14:44.527Z,21.23
2022-08-18T01:15:46.751Z,21.26
2022-08-18T01:17:16.833Z,21.20
2022-08-18T01:18:37.604Z,21.30
2022-08-18T01:19:58.705Z,21.35
2022-08-18T01:21:42.507Z,21.29
2022-08-18T01:22:50.015Z,21.46
2022-08-18T01:23:54.983Z,21.30
2022-08-18T01:25:19.901Z,21.45
2022-08-18T01:26:24.699Z,21.36
2022-08-18T01:27:32.208Z,21.27
2022-08-18T01:28:38.605Z,21.31
2022-08-18T01:29:48.742Z,21.14
2022-08-18T01:30:53.876Z,21.16
2022-08-18T01:31:56.578Z,21.11
2022-08-18T01:33:01.283Z,21.11
2022-08-18T01:34:06.623Z,21.00
2022-08-18T01:35:13.456Z,20.97
2022-08-18T01:36:19.744Z,20.91
2022-08-18T01:37:24.137Z,20.94
2022-08-18T01:38:26.638Z,20.94
2022-08-18T01:41:11.135Z,20.97
2022-08-18T01:41:27.176Z,20.88
2022-08-18T01:42:27.670Z,20.89
2022-08-18T01:43:29.689Z,21.03
2022-08-18T01:44:34.200Z,20.93
2022-08-18T01:45:36.381Z,20.84
2022-08-18T01:46:42.343Z,20.87
2022-08-18T01:47:47.699Z,20.85
2022-08-18T01:48:51.837Z,20.81
2022-08-18T01:49:55.099Z,20.82
2022-08-18T01:50:57.972Z,20.79
2022-08-18T01:52:00.266Z,20.85
2022-08-18T01:53:05.699Z,20.82
2022-08-18T01:54:12.117Z,20.74
2022-08-18T01:55:14.929Z,20.76
2022-08-18T01:56:20.581Z,20.96
2022-08-18T01:57:23.541Z,20.81
2022-08-18T01:58:31.762Z,20.85
2022-08-18T01:59:35.795Z,20.80
2022-08-18T02:00:38.925Z,20.91
2022-08-18T02:01:48.816Z,20.82
2022-08-18T02:02:58.087Z,20.76
2022-08-18T02:04:31.573Z,20.69
2022-08-18T02:05:38.069Z,20.79
2022-08-18T02:06:40.864Z,20.73
2022-08-18T02:07:54.198Z,20.78
2022-08-18T02:08:56.960Z,20.85
2022-08-18T02:09:59.725Z,20.83
2022-08-18T02:11:03.953Z,20.92
2022-08-18T02:12:07.628Z,20.88
2022-08-18T02:13:10.711Z,20.74
2022-08-18T02:14:19.514Z,20.83
2022-08-18T02:15:29.501Z,20.80
2022-08-18T02:16:34.769Z,20.96
2022-08-18T02:18:01.633Z,20.86
2022-08-18T02:19:03.983Z,20.95
2022-08-18T02:20:09.759Z,20.88
2022-08-18T02:21:19.031Z,20.83
2022-08-18T02:22:25.666Z,20.83
2022-08-18T02:23:27.792Z,20.80
2022-08-18T02:24:30.376Z,20.91
2022-08-18T02:25:32.436Z,20.87
2022-08-18T02:26:36.373Z,20.94
2022-08-18T02:27:38.852Z,21.01
2022-08-18T02:28:42.803Z,20.87
2022-08-18T02:29:48.502Z,20.99
2022-08-18T02:30:50.705Z,21.04
2022-08-18T02:31:53.382Z,20.93
2022-08-18T02:33:02.024Z,21.14
2022-08-18T02:34:04.292Z,21.15
2022-08-18T02:35:11.715Z,21.20
2022-08-18T02:36:14.954Z,21.28
2022-08-18T02:37:18.701Z,21.47
2022-08-18T02:38:20.897Z,21.23
2022-08-18T02:39:23.111Z,21.29
2022-08-18T02:40:25.225Z,21.32
2022-08-18T02:41:29.749Z,21.54
2022-08-18T02:42:32.608Z,21.51
2022-08-18T02:43:37.741Z,21.75
2022-08-18T02:44:39.929Z,21.55
2022-08-18T02:45:42.546Z,21.55
2022-08-18T02:46:44.707Z,21.32
2022-08-18T02:47:53.568Z,21.28
2022-08-18T02:48:56.924Z,21.30
2022-08-18T02:49:59.008Z,21.29
2022-08-18T02:51:14.404Z,21.56
2022-08-18T02:52:17.915Z,21.58
2022-08-18T02:53:23.335Z,21.78
2022-08-18T02:54:26.121Z,21.81
2022-08-18T02:55:29.517Z,22.01
2022-08-18T02:56:35.718Z,22.24
2022-08-18T02:57:46.855Z,22.35
2022-08-18T02:58:53.837Z,22.52
2022-08-18T02:59:56.019Z,22.89
2022-08-18T03:00:58.433Z,22.80
2022-08-18T03:02:00.848Z,22.79
2022-08-18T03:03:03.201Z,23.03
2022-08-18T03:04:10.256Z,23.03
2022-08-18T03:05:14.723Z,22.98
2022-08-18T03:06:18.201Z,22.78
2022-08-18T03:07:20.339Z,22.49
2022-08-18T03:08:22.494Z,22.26
2022-08-18T03:09:24.994Z,22.13
2022-08-18T03:10:31.424Z,22.11
2022-08-18T03:11:36.917Z,22.20
2022-08-18T03:12:38.956Z,22.06
2022-08-18T03:13:41.214Z,21.95
2022-08-18T03:14:43.826Z,21.99
2022-08-18T03:15:46.582Z,21.68
2022-08-18T03:16:53.861Z,21.67
2022-08-18T03:17:58.347Z,21.64
2022-08-18T03:19:01.723Z,21.73
2022-08-18T03:20:05.089Z,21.80
2022-08-18T03:21:10.195Z,22.00
2022-08-18T03:22:28.421Z,21.95
2022-08-18T03:23:33.266Z,21.98
2022-08-18T03:24:36.459Z,21.99
2022-08-18T03:25:48.570Z,22.10
2022-08-18T03:26:52.431Z,21.72
2022-08-18T03:27:54.429Z,21.71
2022-08-18T03:28:56.652Z,21.74
2022-08-18T03:29:58.970Z,21.92
2022-08-18T03:31:01.285Z,21.88
2022-08-18T03:32:05.093Z,22.08
2022-08-18T03:33:07.349Z,22.02
2022-08-18T03:34:09.529Z,22.04
2022-08-18T03:35:14.893Z,21.91
2022-08-18T03:36:22.336Z,21.99
2022-08-18T03:37:24.812Z,21.96
2022-08-18T03:38:27.377Z,22.16
2022-08-18T03:39:29.815Z,22.10
2022-08-18T03:40:31.987Z,22.38
2022-08-18T03:41:44.532Z,22.53
2022-08-18T03:42:58.349Z,22.48
2022-08-18T03:44:04.371Z,22.74
2022-08-18T03:45:13.259Z,22.61
2022-08-18T03:46:22.652Z,22.60
2022-08-18T03:47:24.723Z,22.65
2022-08-18T03:48:27.083Z,22.72
2022-08-18T03:49:29.893Z,22.68
2022-08-18T03:50:33.218Z,22.73
2022-08-18T03:51:37.062Z,22.82
2022-08-18T03:52:41.414Z,22.92
2022-08-18T03:53:44.845Z,23.15
2022-08-18T03:54:49.249Z,23.02
2022-08-18T03:56:04.765Z,23.39
2022-08-18T03:57:12.708Z,23.42
2022-08-18T03:58:16.182Z,23.50
2022-08-18T03:59:24.539Z,23.59
2022-08-18T04:00:27.698Z,23.72
2022-08-18T04:01:33.174Z,23.72
2022-08-18T04:02:35.704Z,24.34
2022-08-18T04:03:43.037Z,25.00
2022-08-18T04:04:47.380Z,25.43
2022-08-18T04:05:53.821Z,26.00
2022-08-18T04:06:59.099Z,26.40
2022-08-18T04:08:03.103Z,26.84
2022-08-18T04:09:07.491Z,26.58
2022-08-18T04:10:13.928Z,26.93
2022-08-18T04:11:21.502Z,27.33
2022-08-18T04:12:24.095Z,27.38
2022-08-18T04:13:26.172Z,27.36
2022-08-18T04:14:32.642Z,27.65
2022-08-18T04:15:35.383Z,27.54
2022-08-18T04:16:38.414Z,26.98
2022-08-18T04:17:56.157Z,27.45
2022-08-18T04:19:25.184Z,26.99
2022-08-18T04:20:29.447Z,27.31
2022-08-18T04:21:33.530Z,27.82
2022-08-18T04:22:35.636Z,28.25
2022-08-18T04:23:44.201Z,28.48
2022-08-18T04:24:47.326Z,28.72
2022-08-18T04:25:59.425Z,28.79
2022-08-18T04:27:05.076Z,28.68
2022-08-18T04:28:07.439Z,29.00
2022-08-18T04:29:11.368Z,29.25
2022-08-18T04:30:13.734Z,29.18
2022-08-18T04:31:16.229Z,29.43
2022-08-18T04:32:19.687Z,29.14
2022-08-18T04:33:22.220Z,29.62
2022-08-18T04:34:24.431Z,29.48
2022-08-18T04:35:29.239Z,29.23
2022-08-18T04:36:37.393Z,29.16
2022-08-18T04:37:39.892Z,29.25
2022-08-18T04:38:44.770Z,29.66
2022-08-18T04:39:50.049Z,29.06
2022-08-18T04:40:55.073Z,29.05
2022-08-18T04:41:57.197Z,28.95
2022-08-18T04:42:59.273Z,29.35
2022-08-18T04:44:07.610Z,29.16
2022-08-18T04:45:10.810Z,29.39
2022-08-18T04:46:12.952Z,29.46
2022-08-18T04:47:17.808Z,29.64
2022-08-18T04:48:19.868Z,29.52
2022-08-18T04:49:26.356Z,29.27
2022-08-18T04:50:28.565Z,29.39
2022-08-18T04:52:34.571Z,29.50
2022-08-18T04:53:15.584Z,29.82
2022-08-18T04:54:22.767Z,28.90
2022-08-18T04:55:29.392Z,29.36
2022-08-18T04:56:38.186Z,28.90
2022-08-18T04:57:42.760Z,28.81
2022-08-18T04:58:44.914Z,28.54
2022-08-18T04:59:49.687Z,29.16
2022-08-18T05:01:00.418Z,29.42
2022-08-18T05:02:11.496Z,28.96
2022-08-18T05:03:16.689Z,29.34
2022-08-18T05:04:18.840Z,29.38
2022-08-18T05:05:24.689Z,29.79
2022-08-18T05:06:28.163Z,29.98
2022-08-18T05:07:30.740Z,30.40
2022-08-18T05:08:32.934Z,30.84
2022-08-18T05:09:41.373Z,31.02
2022-08-18T05:10:43.633Z,31.31
2022-08-18T05:11:45.719Z,30.92
2022-08-18T05:12:48.964Z,31.11
2022-08-18T05:13:55.956Z,30.97
2022-08-18T05:14:58.569Z,30.02
2022-08-18T05:16:11.732Z,29.45
2022-08-18T05:17:19.364Z,29.29
2022-08-18T05:18:24.679Z,29.30
2022-08-18T05:19:31.992Z,30.17
2022-08-18T05:20:35.233Z,30.86
2022-08-18T05:21:40.701Z,30.75
2022-08-18T05:22:43.574Z,30.33
2022-08-18T05:23:48.511Z,30.23
2022-08-18T05:24:50.757Z,30.79
2022-08-18T05:26:02.363Z,30.67
2022-08-18T05:27:07.752Z,31.33
2022-08-18T05:28:10.135Z,31.52
2022-08-18T05:29:18.538Z,31.21
2022-08-18T05:30:22.157Z,31.08
2022-08-18T05:31:32.474Z,31.35
2022-08-18T05:32:48.687Z,31.37
2022-08-18T05:33:55.810Z,31.07
2022-08-18T05:34:58.380Z,32.00
2022-08-18T05:36:05.094Z,31.81
2022-08-18T05:37:25.417Z,31.56
2022-08-18T05:38:53.963Z,31.92
2022-08-18T05:40:05.278Z,31.49
2022-08-18T05:41:28.354Z,30.98
2022-08-18T05:42:37.519Z,31.62
2022-08-18T05:43:45.986Z,31.69
2022-08-18T05:44:55.920Z,30.76
2022-08-18T05:46:01.868Z,31.37
2022-08-18T05:47:12.922Z,31.88
2022-08-18T05:48:15.723Z,31.57
2022-08-18T05:49:19.697Z,32.12
2022-08-18T05:50:21.964Z,32.79
2022-08-18T05:51:36.887Z,32.02
2022-08-18T05:52:50.747Z,32.49
2022-08-18T05:54:11.841Z,32.00
2022-08-18T05:55:47.939Z,31.96
2022-08-18T05:56:53.611Z,32.53
2022-08-18T05:58:02.348Z,31.54
2022-08-18T05:59:04.940Z,32.34
2022-08-18T06:00:10.860Z,32.18
2022-08-18T06:01:46.081Z,32.15
2022-08-18T06:03:02.191Z,32.95
2022-08-18T06:04:17.308Z,32.94
2022-08-18T06:05:28.522Z,32.65
2022-08-18T06:06:37.030Z,32.74
2022-08-18T06:07:45.098Z,33.16
2022-08-18T06:08:56.716Z,32.84
2022-08-18T06:09:58.842Z,33.34
2022-08-18T06:11:01.021Z,33.02
2022-08-18T06:12:18.648Z,33.19
2022-08-18T06:13:21.663Z,33.50
2022-08-18T06:14:24.350Z,33.59
2022-08-18T06:15:42.988Z,33.29
2022-08-18T06:17:08.926Z,33.01
2022-08-18T06:18:29.308Z,33.09
2022-08-18T06:20:03.491Z,33.51
2022-08-18T06:21:13.020Z,34.56
2022-08-18T06:22:25.563Z,34.30
2022-08-18T06:23:32.011Z,34.19
2022-08-18T06:24:46.984Z,33.89
2022-08-18T06:26:11.064Z,33.65
2022-08-18T06:27:27.535Z,34.20
2022-08-18T06:28:53.039Z,34.20
2022-08-18T06:30:11.103Z,34.54
2022-08-18T06:31:30.257Z,35.09
2022-08-18T06:32:53.051Z,35.43
2022-08-18T06:34:20.832Z,35.36
2022-08-18T06:35:35.626Z,35.15
2022-08-18T06:36:49.938Z,35.00
2022-08-18T06:38:36.581Z,34.81
2022-08-18T06:39:52.545Z,35.24
2022-08-18T06:41:03.472Z,35.61
2022-08-18T06:42:06.042Z,35.41
2022-08-18T06:43:16.242Z,35.92
2022-08-18T06:44:29.340Z,36.27
2022-08-18T06:45:39.825Z,35.95
2022-08-18T06:47:04.522Z,35.78
2022-08-18T06:48:29.596Z,36.46
2022-08-18T06:50:11.896Z,37.05
2022-08-18T06:51:21.281Z,35.33
2022-08-18T06:52:25.838Z,37.11
2022-08-18T06:54:09.603Z,36.83
2022-08-18T06:55:18.409Z,36.44
2022-08-18T06:56:28.790Z,36.51
2022-08-18T06:57:35.157Z,37.11
2022-08-18T06:58:37.377Z,36.91
2022-08-18T06:59:39.840Z,36.75
2022-08-18T07:01:03.194Z,35.34
2022-08-18T07:02:21.900Z,36.96
2022-08-18T07:03:43.063Z,36.75
2022-08-18T07:05:05.672Z,36.92
2022-08-18T07:06:21.864Z,36.13
2022-08-18T07:07:50.846Z,36.30
2022-08-18T07:08:56.081Z,37.16
2022-08-18T07:09:58.857Z,37.09
2022-08-18T07:11:31.558Z,37.03
2022-08-18T07:12:33.876Z,37.42
2022-08-18T07:13:40.570Z,36.91
2022-08-18T07:15:07.654Z,36.64
2022-08-18T07:16:54.894Z,37.49
2022-08-18T07:18:05.256Z,37.56
2022-08-18T07:19:12.455Z,37.72
2022-08-18T07:20:24.657Z,37.29
2022-08-18T07:21:38.145Z,37.46
2022-08-18T07:23:02.622Z,36.55
2022-08-18T07:24:30.736Z,37.41
2022-08-18T07:25:42.267Z,37.11
2022-08-18T07:27:09.943Z,36.50
2022-08-18T07:28:36.968Z,36.79
2022-08-18T07:29:59.409Z,36.95
2022-08-18T07:31:25.088Z,36.96
2022-08-18T07:32:35.678Z,36.80
2022-08-18T07:33:40.542Z,36.61
2022-08-18T07:34:58.283Z,37.48
2022-08-18T07:36:06.915Z,37.99
2022-08-18T07:37:29.273Z,37.82
2022-08-18T07:38:44.132Z,36.88
2022-08-18T07:40:03.569Z,36.78
2022-08-18T07:41:15.830Z,37.74
2022-08-18T07:43:00.658Z,37.51
2022-08-18T07:44:00.865Z,37.53
2022-08-18T07:45:40.073Z,38.47
2022-08-18T07:46:56.771Z,38.10
2022-08-18T07:48:36.970Z,38.19
2022-08-18T07:49:43.060Z,37.66
2022-08-18T07:51:09.575Z,38.34
2022-08-18T07:52:43.922Z,39.01
2022-08-18T07:54:20.092Z,38.01
2022-08-18T07:55:36.241Z,37.98
2022-08-18T07:56:38.524Z,38.87
2022-08-18T07:58:03.098Z,37.79
2022-08-18T07:59:20.719Z,37.93
2022-08-18T08:02:29.032Z,36.09
2022-08-18T08:04:07.619Z,36.74
2022-08-18T08:05:36.186Z,37.30
2022-08-18T08:06:38.632Z,36.75
2022-08-18T08:08:00.685Z,38.32
2022-08-18T08:09:23.691Z,37.98
2022-08-18T08:10:31.671Z,38.30
2022-08-18T08:11:33.922Z,38.26
2022-08-18T08:13:09.424Z,38.05
2022-08-18T08:14:54.649Z,36.41
2022-08-18T08:16:02.697Z,35.94
2022-08-18T08:17:46.341Z,36.30
2022-08-18T08:19:00.359Z,35.87
2022-08-18T08:20:32.492Z,35.37
2022-08-18T08:21:43.125Z,35.00
2022-08-18T08:23:31.116Z,35.83
2022-08-18T08:25:03.823Z,36.72
2022-08-18T08:26:24.600Z,36.99
2022-08-18T08:28:11.564Z,36.50
2022-08-18T08:29:40.352Z,35.89
2022-08-18T08:30:52.002Z,34.85
2022-08-18T08:31:54.742Z,35.22
2022-08-18T08:33:02.564Z,35.51
2022-08-18T08:34:55.751Z,35.19
2022-08-18T08:36:06.906Z,35.37
2022-08-18T08:37:38.078Z,34.86
2022-08-18T08:38:54.832Z,35.23
2022-08-18T08:40:03.072Z,35.25
2022-08-18T08:41:13.443Z,35.93
2022-08-18T08:42:51.156Z,35.24
2022-08-18T08:44:13.407Z,34.93
2022-08-18T08:45:34.864Z,35.34
2022-08-18T08:46:52.152Z,34.55
2022-08-18T08:48:20.706Z,34.66
2022-08-18T08:49:39.764Z,35.17
2022-08-18T08:50:47.250Z,34.72
2022-08-18T08:51:57.921Z,34.59
2022-08-18T08:53:02.098Z,34.33
2022-08-18T08:54:16.544Z,33.94
2022-08-18T08:55:35.784Z,34.38
2022-08-18T08:56:51.603Z,34.06
2022-08-18T08:58:09.008Z,33.98
2022-08-18T08:59:14.412Z,33.99
2022-08-18T09:00:16.700Z,34.53
2022-08-18T09:01:40.076Z,34.97
2022-08-18T09:03:30.774Z,34.26
2022-08-18T09:05:08.671Z,34.32
2022-08-18T09:06:34.416Z,33.95
2022-08-18T09:08:03.888Z,33.69
2022-08-18T09:09:33.336Z,33.55
2022-08-18T09:11:10.966Z,33.87
2022-08-18T09:12:27.137Z,33.13
2022-08-18T09:14:06.103Z,33.48
2022-08-18T09:15:14.187Z,33.06
2022-08-18T09:16:19.410Z,32.98
2022-08-18T09:17:56.503Z,32.97
2022-08-18T09:19:16.635Z,32.88
2022-08-18T09:20:49.444Z,32.95
2022-08-18T09:22:08.522Z,33.05
2022-08-18T09:23:14.029Z,32.90
2022-08-18T09:24:25.142Z,33.13
2022-08-18T09:25:32.105Z,32.72
2022-08-18T09:26:39.092Z,32.87
2022-08-18T09:29:25.559Z,32.13
2022-08-18T09:30:47.542Z,32.09
2022-08-18T09:32:30.249Z,32.13
2022-08-18T09:33:45.926Z,31.94
2022-08-18T09:35:11.421Z,31.48
2022-08-18T09:36:25.623Z,31.78
2022-08-18T09:38:20.517Z,31.82
2022-08-18T09:39:53.811Z,31.71
2022-08-18T09:41:35.175Z,31.48
2022-08-18T09:42:50.908Z,31.26
2022-08-18T09:44:17.808Z,31.01
2022-08-18T09:45:35.191Z,31.11
2022-08-18T09:46:48.063Z,31.36
2022-08-18T09:47:53.603Z,31.04
2022-08-18T09:49:47.821Z,31.08
2022-08-18T09:50:57.414Z,31.21
2022-08-18T09:52:24.216Z,31.27
2022-08-18T09:54:09.573Z,31.28
2022-08-18T09:55:18.302Z,31.21
2022-08-18T09:56:54.294Z,30.91
2022-08-18T09:58:17.916Z,30.73
2022-08-18T09:59:35.546Z,30.83
2022-08-18T10:00:38.649Z,30.81
2022-08-18T10:04:50.786Z,30.54
2022-08-18T10:06:04.059Z,30.58
2022-08-18T10:07:22.317Z,30.27
2022-08-18T10:08:37.432Z,30.25
2022-08-18T10:09:47.754Z,30.28
2022-08-18T10:10:59.035Z,30.38
2022-08-18T10:12:36.460Z,30.23
2022-08-18T10:13:49.837Z,30.33
2022-08-18T10:15:27.036Z,30.35
2022-08-18T10:17:21.443Z,30.18
2022-08-18T10:18:39.536Z,30.11
2022-08-18T10:20:03.965Z,30.24
2022-08-18T10:21:21.075Z,30.16
2022-08-18T10:22:43.385Z,30.10
2022-08-18T10:23:58.177Z,30.09
2022-08-18T10:25:23.114Z,30.08
2022-08-18T10:26:31.090Z,29.83
2022-08-18T10:27:42.104Z,30.06
2022-08-18T10:28:50.281Z,30.24
2022-08-18T10:29:56.791Z,30.38
2022-08-18T10:31:10.101Z,29.95
2022-08-18T10:32:15.484Z,29.99
2022-08-18T10:33:58.714Z,29.98
2022-08-18T10:35:00.858Z,29.95
2022-08-18T10:36:03.365Z,29.87
2022-08-18T10:37:25.984Z,29.78
2022-08-18T10:38:45.924Z,29.78
2022-08-18T10:39:58.184Z,29.87
2022-08-18T10:41:26.479Z,29.81
2022-08-18T10:43:26.852Z,29.83
2022-08-18T10:44:35.122Z,29.78
2022-08-18T10:45:38.542Z,29.86
2022-08-18T10:46:46.417Z,29.76
2022-08-18T10:48:19.895Z,29.65
2022-08-18T10:49:32.081Z,29.73
2022-08-18T10:50:49.261Z,29.83
2022-08-18T10:52:01.550Z,29.72
2022-08-18T10:53:39.242Z,29.71
2022-08-18T10:55:14.816Z,29.62
2022-08-18T10:56:22.549Z,29.56
2022-08-18T10:57:53.499Z,29.65
2022-08-18T10:59:02.351Z,29.76
2022-08-18T11:00:19.843Z,29.67
2022-08-18T11:01:40.367Z,29.62
2022-08-18T11:03:40.026Z,29.63
2022-08-18T11:04:59.286Z,29.54
2022-08-18T11:06:09.030Z,29.47
2022-08-18T11:07:28.731Z,29.57
2022-08-18T11:08:42.594Z,29.66
2022-08-18T11:09:51.026Z,29.65
2022-08-18T11:11:37.354Z,29.73
2022-08-18T11:13:03.106Z,29.76
2022-08-18T11:14:39.421Z,29.85
2022-08-18T11:16:10.339Z,30.00
2022-08-18T11:17:34.039Z,29.94
2022-08-18T11:18:43.698Z,29.82
2022-08-18T11:19:47.093Z,29.69
2022-08-18T11:20:54.018Z,29.56
2022-08-18T11:21:56.406Z,29.55
2022-08-18T11:23:02.240Z,29.60
2022-08-18T11:24:18.504Z,29.56
2022-08-18T11:25:24.052Z,29.63
2022-08-18T11:26:31.715Z,29.63
2022-08-18T11:27:55.524Z,29.66
2022-08-18T11:28:58.316Z,29.72
2022-08-18T11:30:04.490Z,29.76
2022-08-18T11:31:07.227Z,29.72
2022-08-18T11:32:28.929Z,29.66
2022-08-18T11:33:31.270Z,29.70
2022-08-18T11:34:53.617Z,29.60
2022-08-18T11:35:58.361Z,29.58
2022-08-18T11:37:09.301Z,29.57
2022-08-18T11:38:21.119Z,29.53
2022-08-18T11:39:37.604Z,29.62
2022-08-18T11:42:15.903Z,29.73
2022-08-18T11:45:24.749Z,29.77
2022-08-18T11:46:32.079Z,29.76
2022-08-18T11:47:38.458Z,29.75
2022-08-18T11:48:52.168Z,29.75
2022-08-18T11:50:09.807Z,29.81
2022-08-18T11:51:23.717Z,29.79
2022-08-18T11:52:32.803Z,29.76
2022-08-18T11:53:55.529Z,29.75
2022-08-18T11:55:16.834Z,29.71
2022-08-18T11:56:32.420Z,29.72
2022-08-18T11:58:00.078Z,29.67
2022-08-18T11:59:52.841Z,29.75
2022-08-18T12:00:49.169Z,29.79
2022-08-18T12:01:56.557Z,29.79
2022-08-18T12:03:08.544Z,29.69
2022-08-18T12:04:13.626Z,29.69
2022-08-18T12:05:15.838Z,29.73
2022-08-18T12:06:27.034Z,29.75
2022-08-18T12:07:37.303Z,29.74
2022-08-18T12:08:57.117Z,29.80
2022-08-18T12:10:19.872Z,29.75
2022-08-18T12:11:33.976Z,29.66
2022-08-18T12:12:48.449Z,29.61
2022-08-18T12:15:43.801Z,29.65
2022-08-18T12:16:50.113Z,29.69
2022-08-18T12:17:53.963Z,29.69
2022-08-18T12:18:56.592Z,29.62
2022-08-18T12:19:59.948Z,29.62
2022-08-18T12:21:02.918Z,29.69
2022-08-18T12:22:16.303Z,29.66
2022-08-18T12:23:19.726Z,29.75
2022-08-18T12:24:26.529Z,29.71
2022-08-18T12:25:36.339Z,29.73
2022-08-18T12:26:47.373Z,29.75
2022-08-18T12:27:50.110Z,29.78
2022-08-18T12:28:52.223Z,29.76
2022-08-18T12:29:57.684Z,29.80
2022-08-18T12:31:00.226Z,29.79
2022-08-18T12:32:02.423Z,29.81
2022-08-18T12:33:12.637Z,29.73
2022-08-18T12:35:42.470Z,29.68
2022-08-18T12:36:45.522Z,29.73
2022-08-18T12:38:12.905Z,29.74
2022-08-18T12:39:10.728Z,29.83
2022-08-18T12:40:13.862Z,29.82
2022-08-18T12:41:23.420Z,29.78
2022-08-18T12:42:26.306Z,29.83
2022-08-18T12:43:32.322Z,29.83
2022-08-18T12:44:34.824Z,29.84
2022-08-18T12:45:38.169Z,29.84
2022-08-18T12:46:44.320Z,29.87
2022-08-18T12:47:47.098Z,29.93
2022-08-18T12:48:51.850Z,29.77
2022-08-18T12:49:54.912Z,29.84
2022-08-18T12:51:00.719Z,29.79
2022-08-18T12:52:03.524Z,29.85
2022-08-18T12:53:06.388Z,29.88
2022-08-18T12:54:10.512Z,29.80
2022-08-18T12:55:22.234Z,29.70
2022-08-18T12:56:31.785Z,29.72
2022-08-18T12:57:52.204Z,29.69
2022-08-18T12:58:56.748Z,29.75
2022-08-18T12:59:59.614Z,29.64
2022-08-18T13:01:01.816Z,29.73
2022-08-18T13:02:06.544Z,29.69
2022-08-18T13:03:11.318Z,29.71
2022-08-18T13:04:15.484Z,29.76
2022-08-18T13:05:26.607Z,29.76
2022-08-18T13:06:35.035Z,29.74
2022-08-18T13:07:37.541Z,29.67
2022-08-18T13:08:48.068Z,29.72
2022-08-18T13:09:55.188Z,29.73
2022-08-18T13:11:15.123Z,29.75
2022-08-18T13:12:25.706Z,29.67
2022-08-18T13:13:29.617Z,29.67
2022-08-18T13:14:33.287Z,29.70
2022-08-18T13:15:37.007Z,29.77
2022-08-18T13:16:53.894Z,29.71
2022-08-18T13:17:57.754Z,29.67
2022-08-18T13:19:00.163Z,29.70
2022-08-18T13:20:07.582Z,29.65
2022-08-18T13:21:15.078Z,29.65
2022-08-18T13:22:19.168Z,29.70
2022-08-18T13:23:25.205Z,29.78
2022-08-18T13:24:27.825Z,29.77
2022-08-18T13:25:39.395Z,29.76
2022-08-18T13:26:45.609Z,29.81
2022-08-18T13:27:48.773Z,29.82
2022-08-18T13:28:58.122Z,29.74
2022-08-18T13:30:03.069Z,29.70
2022-08-18T13:31:26.348Z,29.71
2022-08-18T13:32:38.374Z,29.76
2022-08-18T13:33:56.787Z,29.71
2022-08-18T13:35:02.701Z,29.70
2022-08-18T13:36:12.379Z,29.70
2022-08-18T13:37:15.435Z,29.70
2022-08-18T13:38:26.124Z,29.61
2022-08-18T13:39:33.791Z,29.59
2022-08-18T13:40:38.199Z,29.59
2022-08-18T13:41:52.358Z,29.55
2022-08-18T13:42:54.810Z,29.57
2022-08-18T13:43:59.982Z,29.63
2022-08-18T13:45:25.133Z,29.67
2022-08-18T13:46:31.217Z,29.70
2022-08-18T13:47:38.220Z,29.64
2022-08-18T13:48:41.994Z,29.58
2022-08-18T13:49:58.329Z,29.64
2022-08-18T13:51:03.260Z,29.64
2022-08-18T13:52:12.186Z,29.61
2022-08-18T13:53:31.347Z,29.66
2022-08-18T13:54:36.331Z,29.63
2022-08-18T13:55:41.862Z,29.65
2022-08-18T13:56:51.255Z,29.64
2022-08-18T13:57:54.927Z,29.69
2022-08-18T13:58:57.299Z,29.72
2022-08-18T14:00:00.859Z,29.70
2022-08-18T14:01:42.138Z,29.71
2022-08-18T14:02:30.392Z,29.63
2022-08-18T14:03:46.827Z,29.64
2022-08-18T14:04:51.764Z,29.65
2022-08-18T14:06:01.641Z,29.68
2022-08-18T14:07:09.649Z,29.62
2022-08-18T14:08:19.038Z,29.61
2022-08-18T14:09:35.614Z,29.64
2022-08-18T14:10:40.029Z,29.59
2022-08-18T14:11:42.284Z,29.58
2022-08-18T14:12:46.197Z,29.58
2022-08-18T14:13:49.049Z,29.58
2022-08-18T14:14:53.378Z,29.57
2022-08-18T14:16:00.986Z,29.56
2022-08-18T14:17:05.729Z,29.57
2022-08-18T14:18:16.426Z,29.53
2022-08-18T14:19:37.320Z,29.46
2022-08-18T14:21:00.774Z,29.55
2022-08-18T14:22:24.880Z,29.52
2022-08-18T14:23:53.132Z,29.46
2022-08-18T14:25:14.082Z,29.50
2022-08-18T14:26:34.874Z,29.42
2022-08-18T14:27:38.965Z,29.39
2022-08-18T14:28:41.519Z,29.42
2022-08-18T14:29:46.947Z,29.41
2022-08-18T14:30:50.922Z,29.35
2022-08-18T14:31:57.772Z,29.34
2022-08-18T14:33:05.274Z,29.34
2022-08-18T14:34:08.652Z,29.39
2022-08-18T14:36:03.723Z,29.38
2022-08-18T14:36:38.410Z,29.35
2022-08-18T14:37:41.861Z,29.32
2022-08-18T14:38:44.131Z,29.35
2022-08-18T14:39:50.209Z,29.33
2022-08-18T14:40:53.766Z,29.33
2022-08-18T14:41:58.770Z,29.33
2022-08-18T14:43:07.960Z,29.33
2022-08-18T14:44:16.051Z,29.32
2022-08-18T14:45:31.617Z,29.30
2022-08-18T14:46:37.891Z,29.29
2022-08-18T14:47:45.488Z,29.31
2022-08-18T14:48:52.478Z,29.28
2022-08-18T14:49:57.574Z,29.27
2022-08-18T14:51:03.073Z,29.29
2022-08-18T14:52:13.886Z,29.27
2022-08-18T14:53:20.386Z,29.23
2022-08-18T14:54:22.599Z,29.24
2022-08-18T14:55:25.047Z,29.23
2022-08-18T14:56:33.247Z,29.24
2022-08-18T14:57:35.615Z,29.25
2022-08-18T14:58:39.585Z,29.26
2022-08-18T14:59:41.767Z,29.27
2022-08-18T15:00:53.520Z,29.24
2022-08-18T15:01:58.110Z,29.20
2022-08-18T15:03:01.409Z,29.23
2022-08-18T15:04:18.739Z,29.25
2022-08-18T15:05:24.215Z,29.28
2022-08-18T15:06:27.481Z,29.29
2022-08-18T15:07:29.762Z,29.34
2022-08-18T15:08:37.598Z,29.33
2022-08-18T15:09:42.254Z,29.33
2022-08-18T15:10:45.660Z,29.31
2022-08-18T15:11:51.385Z,29.28
2022-08-18T15:12:58.001Z,29.25
2022-08-18T15:14:01.435Z,29.27
2022-08-18T15:15:09.333Z,29.32
2022-08-18T15:16:12.093Z,29.32
2022-08-18T15:17:14.715Z,29.27
2022-08-18T15:18:22.258Z,29.24
2022-08-18T15:19:59.487Z,29.28
2022-08-18T15:21:34.962Z,29.19
2022-08-18T15:23:00.890Z,29.16
2022-08-18T15:24:22.279Z,29.12
2022-08-18T15:25:36.431Z,29.06
2022-08-18T15:26:42.741Z,29.08
2022-08-18T15:27:45.266Z,29.05
2022-08-18T15:28:47.432Z,29.02
2022-08-18T15:29:53.154Z,28.99
2022-08-18T15:32:17.839Z,29.00
2022-08-18T15:33:24.427Z,28.98